< < Back
Terminal Aerodrome Forecast


Current Version              Previous Versions:   1  2  3  4  5  6  7  8  9  

Terminal Aerodrome Forecast

292
FTUS42 KCHS 251827 AAA
TAFCHS
TAF AMD
KCHS 251827Z 2518/2618 VRB05KT P6SM SCT050
     FM251900 18010KT P6SM SCT060
     FM260400 VRB04KT P6SM FEW050=



Latest METAR

250
SAUS80 KWBC 260600 CCA
MTRCHS
METAR KCHS 260556Z 20003KT 10SM CLR 21/19 A3019 RMK AO2 SLP222 T02110189
10256 20206 58009


USA.gov is the U.S. government's official web portal to all federal, state and local government web resources and services.